Time;durP1;ratioP1;P1;durP2;ratioP2;P2;SDS_P1;SDS_P2;PMS_P1;PMS_P2;Temp;Humidity;BMP_temperature;BMP_pressure;BME280_temperature;BME280_humidity;BME280_pressure;Samples;Min_cycle;Max_cycle;Signal;HPM_P1;HPM_P2
2022/09/22 00:01:16;;;;;;;1.10;1.05;;;;;;;;;;5049355;28;20075;-85
2022/09/22 00:03:45;;;;;;;0.43;0.43;;;;;;;;;;5050513;28;20477;-82
2022/09/22 00:06:17;;;;;;;0.75;0.75;;;;;;;;;;5051811;28;20105;-82
2022/09/22 00:08:44;;;;;;;0.98;0.80;;;;;;;;;;5045862;28;20063;-81
2022/09/22 00:11:15;;;;;;;0.47;0.47;;;;;;;;;;5049299;28;20532;-83
2022/09/22 00:13:51;;;;;;;0.30;0.30;;;;;;;;;;5047584;28;20032;-84
2022/09/22 00:16:28;;;;;;;0.30;0.30;;;;;;;;;;5048616;28;20025;-82
2022/09/22 00:18:53;;;;;;;1.55;1.17;;;;;;;;;;5050363;28;20075;-85
2022/09/22 00:21:21;;;;;;;1.17;0.75;;;;;;;;;;5048985;28;20439;-82
2022/09/22 00:23:47;;;;;;;0.40;0.40;;;;;;;;;;5049153;28;20115;-79
2022/09/22 00:26:18;;;;;;;0.45;0.45;;;;;;;;;;5046798;28;20142;-82
2022/09/22 00:28:46;;;;;;;0.50;0.50;;;;;;;;;;5050004;28;20040;-82
2022/09/22 00:31:15;;;;;;;2.10;0.60;;;;;;;;;;5049237;28;20033;-83
2022/09/22 00:33:41;;;;;;;0.28;0.28;;;;;;;;;;5068970;28;20036;-81
2022/09/22 00:36:07;;;;;;;0.52;0.52;;;;;;;;;;5052564;28;20104;-84
2022/09/22 00:38:33;;;;;;;0.43;0.43;;;;;;;;;;5052838;28;20028;-84
2022/09/22 00:41:00;;;;;;;0.57;0.45;;;;;;;;;;5052628;28;20024;-83
2022/09/22 00:43:27;;;;;;;1.13;0.75;;;;;;;;;;5050942;28;20431;-82
2022/09/22 00:46:02;;;;;;;0.20;0.20;;;;;;;;;;5054733;28;20028;-82
2022/09/22 00:48:30;;;;;;;0.47;0.47;;;;;;;;;;5056401;28;20029;-83
2022/09/22 00:51:00;;;;;;;0.38;0.38;;;;;;;;;;5051319;28;20116;-83
2022/09/22 00:53:26;;;;;;;0.75;0.75;;;;;;;;;;5047945;28;20021;-82
2022/09/22 00:56:00;;;;;;;2.50;2.30;;;;;;;;;;5050629;28;20110;-83
2022/09/22 00:58:36;;;;;;;0.20;0.20;;;;;;;;;;5051511;28;20074;-82
2022/09/22 01:01:02;;;;;;;0.65;0.60;;;;;;;;;;5049711;28;20045;-81
2022/09/22 01:03:29;;;;;;;0.93;0.88;;;;;;;;;;5049532;28;20045;-83
2022/09/22 01:05:57;;;;;;;0.40;0.40;;;;;;;;;;5051930;28;20045;-82
2022/09/22 01:08:24;;;;;;;0.43;0.43;;;;;;;;;;5053226;28;20036;-83
2022/09/22 01:10:50;;;;;;;0.47;0.47;;;;;;;;;;5055529;28;20024;-80
2022/09/22 01:13:21;;;;;;;0.40;0.40;;;;;;;;;;5052756;28;20037;-84
2022/09/22 01:16:04;;;;;;;0.28;0.28;;;;;;;;;;5052096;28;20033;-82
2022/09/22 01:18:55;;;;;;;0.50;0.50;;;;;;;;;;5050113;28;20828;-82
2022/09/22 01:21:34;;;;;;;0.30;0.30;;;;;;;;;;5050292;28;20037;-81
2022/09/22 01:24:18;;;;;;;0.22;0.22;;;;;;;;;;5051453;28;20017;-81
2022/09/22 01:26:52;;;;;;;0.55;0.55;;;;;;;;;;5050672;28;20568;-82
2022/09/22 01:29:39;;;;;;;1.33;0.93;;;;;;;;;;5052744;28;20021;-82
2022/09/22 01:32:14;;;;;;;0.75;0.75;;;;;;;;;;5052418;28;20029;-80
2022/09/22 01:34:48;;;;;;;0.60;0.60;;;;;;;;;;5055102;28;20035;-79
2022/09/22 01:37:25;;;;;;;0.38;0.38;;;;;;;;;;5052343;28;20071;-83
2022/09/22 01:39:58;;;;;;;1.02;0.82;;;;;;;;;;5050944;28;20040;-82
2022/09/22 01:42:43;;;;;;;0.57;0.57;;;;;;;;;;5049740;28;20023;-82
2022/09/22 01:45:12;;;;;;;0.45;0.45;;;;;;;;;;5050763;28;20048;-84
2022/09/22 01:47:54;;;;;;;3.10;0.85;;;;;;;;;;5052640;28;20385;-81
2022/09/22 01:50:24;;;;;;;0.35;0.35;;;;;;;;;;5052715;28;20033;-82
2022/09/22 01:52:52;;;;;;;0.20;0.20;;;;;;;;;;5051159;28;20041;-82
2022/09/22 01:55:24;;;;;;;0.63;0.63;;;;;;;;;;5050549;28;20032;-81
2022/09/22 01:58:15;;;;;;;0.80;0.47;;;;;;;;;;5052268;28;20036;-82
2022/09/22 02:00:48;;;;;;;0.63;0.60;;;;;;;;;;5046378;28;20401;-85
2022/09/22 02:03:20;;;;;;;0.30;0.30;;;;;;;;;;5053225;28;20078;-82
2022/09/22 02:06:03;;;;;;;0.20;0.20;;;;;;;;;;5052716;28;20033;-84
2022/09/22 02:08:36;;;;;;;0.32;0.28;;;;;;;;;;5053005;28;20032;-81
2022/09/22 02:11:08;;;;;;;0.63;0.57;;;;;;;;;;5048490;28;20503;-82
2022/09/22 02:13:35;;;;;;;0.60;0.60;;;;;;;;;;5052204;28;20098;-83
2022/09/22 02:16:02;;;;;;;0.32;0.32;;;;;;;;;;5055845;28;20028;-83
2022/09/22 02:18:52;;;;;;;0.25;0.25;;;;;;;;;;5051642;28;20040;-84
2022/09/22 02:21:19;;;;;;;0.65;0.65;;;;;;;;;;5051411;28;20488;-82
2022/09/22 02:23:46;;;;;;;0.40;0.40;;;;;;;;;;5051419;28;20415;-82
2022/09/22 02:26:22;;;;;;;0.50;0.50;;;;;;;;;;5053562;28;20032;-84
2022/09/22 02:28:52;;;;;;;0.25;0.25;;;;;;;;;;5049294;28;20449;-83
2022/09/22 02:31:20;;;;;;;0.30;0.30;;;;;;;;;;5050120;28;20079;-82
2022/09/22 02:33:46;;;;;;;1.30;1.13;;;;;;;;;;5049650;28;20032;-84
2022/09/22 02:36:41;;;;;;;1.02;0.25;;;;;;;;;;5053961;28;20032;-83
2022/09/22 02:39:13;;;;;;;0.43;0.43;;;;;;;;;;5052226;28;20021;-83
2022/09/22 02:41:51;;;;;;;1.40;0.57;;;;;;;;;;5050904;28;20021;-84
2022/09/22 02:44:36;;;;;;;0.75;0.75;;;;;;;;;;5050415;28;20144;-84
2022/09/22 02:47:08;;;;;;;0.52;0.52;;;;;;;;;;5051390;28;20068;-81
2022/09/22 02:49:35;;;;;;;0.90;0.85;;;;;;;;;;5050326;28;20021;-84
2022/09/22 02:52:00;;;;;;;1.33;1.23;;;;;;;;;;5051153;28;20039;-82
2022/09/22 02:54:26;;;;;;;0.35;0.35;;;;;;;;;;5051940;28;20401;-82
2022/09/22 02:56:52;;;;;;;0.82;0.52;;;;;;;;;;5049069;28;20512;-83
2022/09/22 02:59:17;;;;;;;1.00;0.57;;;;;;;;;;5050625;28;20045;-84
2022/09/22 03:01:43;;;;;;;0.63;0.55;;;;;;;;;;5050320;28;20040;-81
2022/09/22 03:04:08;;;;;;;0.28;0.28;;;;;;;;;;5051046;28;20041;-81
2022/09/22 03:06:33;;;;;;;0.43;0.38;;;;;;;;;;5051158;28;20091;-82
2022/09/22 03:08:59;;;;;;;0.85;0.85;;;;;;;;;;5046732;28;20056;-83
2022/09/22 03:11:26;;;;;;;1.33;1.05;;;;;;;;;;5050983;28;20025;-81
2022/09/22 03:13:52;;;;;;;1.92;0.98;;;;;;;;;;5049781;28;20025;-82
2022/09/22 03:16:17;;;;;;;0.93;0.93;;;;;;;;;;5049569;28;20131;-82
2022/09/22 03:18:43;;;;;;;0.73;0.63;;;;;;;;;;5049761;28;20508;-83
2022/09/22 03:21:11;;;;;;;1.25;0.77;;;;;;;;;;5049871;28;20025;-84
2022/09/22 03:23:36;;;;;;;0.80;0.80;;;;;;;;;;5049612;28;20033;-83
2022/09/22 03:26:02;;;;;;;0.43;0.43;;;;;;;;;;5050641;28;20025;-82
2022/09/22 03:28:28;;;;;;;0.50;0.50;;;;;;;;;;5050711;28;20021;-83
2022/09/22 03:30:54;;;;;;;1.70;1.23;;;;;;;;;;5052023;28;20036;-82
2022/09/22 03:33:19;;;;;;;1.25;1.13;;;;;;;;;;5050776;28;20041;-83
2022/09/22 03:35:44;;;;;;;0.63;0.63;;;;;;;;;;5050622;28;20029;-80
2022/09/22 03:38:10;;;;;;;1.27;0.90;;;;;;;;;;5049885;28;20052;-81
2022/09/22 03:40:36;;;;;;;0.32;0.32;;;;;;;;;;5049371;28;20021;-82
2022/09/22 03:43:01;;;;;;;1.77;0.98;;;;;;;;;;5050279;28;20029;-83
2022/09/22 03:45:27;;;;;;;0.30;0.30;;;;;;;;;;5046793;28;20032;-83
2022/09/22 03:47:53;;;;;;;0.30;0.30;;;;;;;;;;5050322;28;20384;-82
2022/09/22 03:50:19;;;;;;;1.00;0.93;;;;;;;;;;5049850;28;20020;-79
2022/09/22 03:52:44;;;;;;;0.65;0.43;;;;;;;;;;5050113;28;20477;-81
2022/09/22 03:55:10;;;;;;;0.85;0.75;;;;;;;;;;5050707;28;20161;-83
2022/09/22 03:57:35;;;;;;;0.70;0.70;;;;;;;;;;5049565;28;20044;-82
2022/09/22 04:00:02;;;;;;;1.45;0.80;;;;;;;;;;5047703;28;20276;-85
2022/09/22 04:02:28;;;;;;;1.05;0.60;;;;;;;;;;5046452;28;20021;-84
2022/09/22 04:04:53;;;;;;;1.55;1.38;;;;;;;;;;5051720;28;20083;-82
2022/09/22 04:07:18;;;;;;;0.38;0.38;;;;;;;;;;5054380;28;20021;-84
2022/09/22 04:09:44;;;;;;;0.35;0.35;;;;;;;;;;5053753;28;20037;-82
2022/09/22 04:12:09;;;;;;;0.45;0.45;;;;;;;;;;5056097;28;20374;-84
2022/09/22 04:14:35;;;;;;;1.60;1.13;;;;;;;;;;5054131;28;20025;-82
2022/09/22 04:17:00;;;;;;;1.10;1.05;;;;;;;;;;5053109;28;20035;-82
2022/09/22 04:19:26;;;;;;;1.85;1.02;;;;;;;;;;5051972;28;20049;-81
2022/09/22 04:21:51;;;;;;;0.40;0.40;;;;;;;;;;5054763;28;20040;-83
2022/09/22 04:24:17;;;;;;;2.17;1.88;;;;;;;;;;5053272;28;20025;-82
2022/09/22 04:26:42;;;;;;;0.60;0.60;;;;;;;;;;5054574;28;20083;-81
2022/09/22 04:29:08;;;;;;;1.15;0.55;;;;;;;;;;5052450;28;20078;-83
2022/09/22 04:31:33;;;;;;;0.40;0.40;;;;;;;;;;5054110;28;20029;-80
2022/09/22 04:33:59;;;;;;;1.38;0.80;;;;;;;;;;5051375;28;20036;-81
2022/09/22 04:36:24;;;;;;;1.42;1.17;;;;;;;;;;5068857;28;20031;-81
2022/09/22 04:38:50;;;;;;;0.85;0.68;;;;;;;;;;5056287;28;20051;-85
2022/09/22 04:41:15;;;;;;;0.88;0.70;;;;;;;;;;5053248;28;20385;-82
2022/09/22 04:43:42;;;;;;;1.60;1.50;;;;;;;;;;5056010;28;20483;-84
2022/09/22 04:46:07;;;;;;;1.27;1.17;;;;;;;;;;5055022;28;20144;-83
2022/09/22 04:48:33;;;;;;;0.38;0.38;;;;;;;;;;5055141;28;20433;-80
2022/09/22 04:50:59;;;;;;;0.80;0.80;;;;;;;;;;5057823;28;20026;-84
2022/09/22 04:53:25;;;;;;;1.42;1.10;;;;;;;;;;5052038;28;20033;-83
2022/09/22 04:55:50;;;;;;;1.05;0.98;;;;;;;;;;5050568;28;20029;-84
2022/09/22 04:58:16;;;;;;;1.25;0.98;;;;;;;;;;5052389;28;21550;-86
2022/09/22 05:00:41;;;;;;;0.60;0.60;;;;;;;;;;5050940;28;20032;-81
2022/09/22 05:03:11;;;;;;;0.80;0.80;;;;;;;;;;5050418;28;20049;-80
2022/09/22 05:05:37;;;;;;;1.02;0.80;;;;;;;;;;5054891;28;20029;-82
2022/09/22 05:08:04;;;;;;;0.60;0.38;;;;;;;;;;5053238;28;20033;-82
2022/09/22 05:10:31;;;;;;;1.10;0.60;;;;;;;;;;5053801;28;20041;-86
2022/09/22 05:12:57;;;;;;;1.00;0.63;;;;;;;;;;5052761;28;20864;-83
2022/09/22 05:15:24;;;;;;;0.55;0.55;;;;;;;;;;5053171;28;20103;-82
2022/09/22 05:17:51;;;;;;;1.60;1.00;;;;;;;;;;5050841;28;20029;-82
2022/09/22 05:20:19;;;;;;;1.23;1.05;;;;;;;;;;5053142;28;20028;-83
2022/09/22 05:22:46;;;;;;;1.77;0.85;;;;;;;;;;5054138;28;20060;-80
2022/09/22 05:25:14;;;;;;;1.30;1.20;;;;;;;;;;5058436;28;20033;-81
2022/09/22 05:27:51;;;;;;;0.17;0.17;;;;;;;;;;5052788;28;20075;-82
2022/09/22 05:30:18;;;;;;;0.80;0.80;;;;;;;;;;5054561;28;20056;-82
2022/09/22 05:32:45;;;;;;;1.48;0.50;;;;;;;;;;5046041;28;20395;-80
2022/09/22 05:35:12;;;;;;;2.58;2.25;;;;;;;;;;5051612;28;20024;-82
2022/09/22 05:37:37;;;;;;;0.88;0.75;;;;;;;;;;5046537;28;20028;-84
2022/09/22 05:40:05;;;;;;;0.57;0.55;;;;;;;;;;5050663;28;20164;-84
2022/09/22 05:42:30;;;;;;;0.88;0.88;;;;;;;;;;5049239;28;20051;-85
2022/09/22 05:44:56;;;;;;;2.65;0.63;;;;;;;;;;5052993;28;20024;-83
2022/09/22 05:47:21;;;;;;;0.88;0.80;;;;;;;;;;5052779;28;20061;-82
2022/09/22 05:49:46;;;;;;;2.35;1.45;;;;;;;;;;5050789;28;20048;-83
2022/09/22 05:52:12;;;;;;;1.60;0.95;;;;;;;;;;5049405;28;20025;-82
2022/09/22 05:54:37;;;;;;;0.50;0.50;;;;;;;;;;5052645;28;20032;-82
2022/09/22 05:57:03;;;;;;;0.63;0.63;;;;;;;;;;5053383;28;20504;-82
2022/09/22 05:59:28;;;;;;;1.20;0.70;;;;;;;;;;5051091;28;20083;-83
2022/09/22 06:01:53;;;;;;;1.05;0.65;;;;;;;;;;5054622;28;20036;-84
2022/09/22 06:04:19;;;;;;;1.00;0.90;;;;;;;;;;5053265;28;20037;-85
2022/09/22 06:06:44;;;;;;;0.35;0.35;;;;;;;;;;5049208;28;20021;-83
2022/09/22 06:09:10;;;;;;;1.00;0.73;;;;;;;;;;5049279;28;20423;-81
2022/09/22 06:11:35;;;;;;;1.55;1.17;;;;;;;;;;5050449;28;20602;-82
2022/09/22 06:14:00;;;;;;;1.75;1.20;;;;;;;;;;5051234;28;20033;-83
2022/09/22 06:16:26;;;;;;;0.73;0.73;;;;;;;;;;5048130;28;20112;-82
2022/09/22 06:18:51;;;;;;;1.75;1.33;;;;;;;;;;5050447;28;20036;-82
2022/09/22 06:21:17;;;;;;;0.40;0.40;;;;;;;;;;5052572;28;20025;-83
2022/09/22 06:23:43;;;;;;;1.05;0.63;;;;;;;;;;5051028;28;20074;-83
2022/09/22 06:26:09;;;;;;;0.95;0.88;;;;;;;;;;5049605;28;20112;-86
2022/09/22 06:28:34;;;;;;;0.68;0.68;;;;;;;;;;5051801;28;20032;-84
2022/09/22 06:31:00;;;;;;;0.68;0.68;;;;;;;;;;5052003;28;20025;-82
2022/09/22 06:33:27;;;;;;;1.40;0.60;;;;;;;;;;5050405;28;20060;-83
2022/09/22 06:35:53;;;;;;;0.60;0.50;;;;;;;;;;5049608;28;20033;-84
2022/09/22 06:38:18;;;;;;;0.70;0.70;;;;;;;;;;5049537;28;21307;-82
2022/09/22 06:40:44;;;;;;;0.60;0.60;;;;;;;;;;5063841;28;20461;-82
2022/09/22 06:43:21;;;;;;;0.57;0.55;;;;;;;;;;5047497;28;20075;-83
2022/09/22 06:45:48;;;;;;;2.08;0.95;;;;;;;;;;5048956;28;20067;-83
2022/09/22 06:48:13;;;;;;;1.50;0.70;;;;;;;;;;5047522;28;20885;-84
2022/09/22 06:50:39;;;;;;;0.70;0.70;;;;;;;;;;5049749;28;20100;-82
2022/09/22 06:53:10;;;;;;;1.55;1.00;;;;;;;;;;5049694;28;20035;-85
2022/09/22 06:55:36;;;;;;;0.80;0.30;;;;;;;;;;5049997;28;20071;-85
2022/09/22 06:58:01;;;;;;;0.80;0.70;;;;;;;;;;5049053;28;20040;-82
2022/09/22 07:00:32;;;;;;;3.70;1.77;;;;;;;;;;5050430;28;20033;-83
2022/09/22 07:03:07;;;;;;;0.38;0.38;;;;;;;;;;5065036;28;20554;-83
2022/09/22 07:05:33;;;;;;;0.90;0.85;;;;;;;;;;5050930;28;20037;-83
2022/09/22 07:07:59;;;;;;;0.70;0.70;;;;;;;;;;5048783;28;20385;-82
2022/09/22 07:10:24;;;;;;;0.88;0.85;;;;;;;;;;5051113;28;20025;-80
2022/09/22 07:12:50;;;;;;;2.47;1.25;;;;;;;;;;5052349;28;20063;-84
2022/09/22 07:15:15;;;;;;;1.45;1.02;;;;;;;;;;5048906;28;20074;-82
2022/09/22 07:17:41;;;;;;;1.33;0.68;;;;;;;;;;5050797;28;20032;-84
2022/09/22 07:20:07;;;;;;;1.45;1.10;;;;;;;;;;5050243;28;20025;-82
2022/09/22 07:22:33;;;;;;;1.08;0.98;;;;;;;;;;5048501;28;20099;-82
2022/09/22 07:25:01;;;;;;;1.85;0.77;;;;;;;;;;5049955;28;20465;-85
2022/09/22 07:27:26;;;;;;;0.40;0.40;;;;;;;;;;5048047;28;20466;-83
2022/09/22 07:29:53;;;;;;;0.60;0.60;;;;;;;;;;5049161;28;20031;-84
2022/09/22 07:32:20;;;;;;;0.77;0.73;;;;;;;;;;5053198;28;20033;-86
2022/09/22 07:34:47;;;;;;;1.33;0.90;;;;;;;;;;5051132;28;21748;-84
2022/09/22 07:37:14;;;;;;;0.65;0.63;;;;;;;;;;5053021;28;20027;-85
2022/09/22 07:39:39;;;;;;;0.50;0.50;;;;;;;;;;5049441;28;20025;-84
2022/09/22 07:42:05;;;;;;;1.55;1.17;;;;;;;;;;5050375;28;20027;-81
2022/09/22 07:48:34;;;;;;;2.25;1.15;;;;;;;;;;5049569;28;20032;-84
2022/09/22 07:50:02;;;;;;;6.72;1.58;;;;;;;;;;5050076;28;20123;-86
2022/09/22 07:52:29;;;;;;;0.30;0.20;;;;;;;;;;5050689;28;20017;-86
2022/09/22 07:54:54;;;;;;;0.82;0.82;;;;;;;;;;5049550;28;20095;-83
2022/09/22 07:57:19;;;;;;;0.70;0.47;;;;;;;;;;5051250;28;20028;-84
2022/09/22 07:59:45;;;;;;;0.93;0.85;;;;;;;;;;5051428;28;20075;-83
2022/09/22 08:02:10;;;;;;;0.70;0.50;;;;;;;;;;5047801;28;20029;-82
2022/09/22 08:04:36;;;;;;;1.00;0.90;;;;;;;;;;5051201;28;20041;-82
2022/09/22 08:07:01;;;;;;;0.75;0.65;;;;;;;;;;5047632;28;20052;-82
2022/09/22 08:09:28;;;;;;;0.63;0.55;;;;;;;;;;5050984;28;20484;-83
2022/09/22 08:11:54;;;;;;;0.75;0.65;;;;;;;;;;5049181;28;20057;-82
2022/09/22 08:14:22;;;;;;;1.13;0.95;;;;;;;;;;5053805;28;20025;-82
2022/09/22 08:16:50;;;;;;;0.30;0.30;;;;;;;;;;5049904;28;20024;-80
2022/09/22 08:19:17;;;;;;;0.43;0.43;;;;;;;;;;5051984;28;20142;-82
2022/09/22 08:21:45;;;;;;;0.55;0.55;;;;;;;;;;5052279;28;20388;-83
2022/09/22 08:24:12;;;;;;;0.73;0.70;;;;;;;;;;5050983;28;20021;-81
2022/09/22 08:26:39;;;;;;;0.55;0.55;;;;;;;;;;5051362;28;20028;-82
2022/09/22 08:29:06;;;;;;;0.90;0.63;;;;;;;;;;5049958;28;20513;-82
2022/09/22 08:31:34;;;;;;;0.45;0.45;;;;;;;;;;5049047;28;20068;-84
2022/09/22 08:34:00;;;;;;;1.20;0.82;;;;;;;;;;5049318;28;20123;-83
2022/09/22 08:36:26;;;;;;;1.00;0.80;;;;;;;;;;5051792;28;20035;-85
2022/09/22 08:38:57;;;;;;;1.40;0.93;;;;;;;;;;5049718;28;20021;-81
2022/09/22 08:41:25;;;;;;;0.77;0.77;;;;;;;;;;5049683;28;20079;-83
2022/09/22 08:43:58;;;;;;;0.50;0.50;;;;;;;;;;5048295;28;20040;-83
2022/09/22 08:46:37;;;;;;;0.30;0.28;;;;;;;;;;5051561;28;20029;-87
2022/09/22 08:52:58;;;;;;;0.77;0.60;;;;;;;;;;4991418;28;20104;-83
2022/09/22 08:55:25;;;;;;;1.10;0.52;;;;;;;;;;5054911;28;20025;-82
2022/09/22 08:58:03;;;;;;;3.47;1.05;;;;;;;;;;5054816;28;20025;-83
2022/09/22 09:00:36;;;;;;;0.63;0.45;;;;;;;;;;5052057;28;20421;-83
2022/09/22 09:03:30;;;;;;;0.40;0.40;;;;;;;;;;5052027;28;20543;-83
2022/09/22 09:06:11;;;;;;;0.93;0.85;;;;;;;;;;5054448;28;20095;-83
2022/09/22 09:08:46;;;;;;;0.50;0.50;;;;;;;;;;5054827;28;20025;-82
2022/09/22 09:11:30;;;;;;;0.32;0.32;;;;;;;;;;5051939;28;20511;-84
2022/09/22 09:14:16;;;;;;;1.85;0.80;;;;;;;;;;5051208;28;20052;-83
2022/09/22 09:16:56;;;;;;;0.45;0.40;;;;;;;;;;5053735;28;20067;-84
2022/09/22 09:19:27;;;;;;;0.30;0.30;;;;;;;;;;5051760;28;20044;-84
2022/09/22 09:21:57;;;;;;;0.30;0.30;;;;;;;;;;5050283;28;20025;-85
2022/09/22 09:24:31;;;;;;;0.35;0.35;;;;;;;;;;5052847;28;20107;-83
2022/09/22 09:27:20;;;;;;;0.55;0.45;;;;;;;;;;5053127;28;20103;-84
2022/09/22 09:30:06;;;;;;;0.45;0.43;;;;;;;;;;5053167;28;20025;-83
2022/09/22 09:32:32;;;;;;;0.30;0.30;;;;;;;;;;5040976;28;20044;-82
2022/09/22 09:34:59;;;;;;;1.40;0.43;;;;;;;;;;5052982;28;20029;-83
2022/09/22 09:37:25;;;;;;;0.30;0.30;;;;;;;;;;5054156;28;20542;-85
2022/09/22 09:39:51;;;;;;;0.30;0.30;;;;;;;;;;5052825;28;20028;-82
2022/09/22 09:42:30;;;;;;;0.40;0.30;;;;;;;;;;5052400;28;20025;-83
2022/09/22 09:45:01;;;;;;;0.20;0.20;;;;;;;;;;5053594;28;20025;-83
2022/09/22 09:47:32;;;;;;;0.40;0.40;;;;;;;;;;5050099;28;20049;-84
2022/09/22 09:49:58;;;;;;;0.20;0.20;;;;;;;;;;5051305;28;20540;-83
2022/09/22 09:52:26;;;;;;;0.40;0.40;;;;;;;;;;5054023;28;20107;-84
2022/09/22 09:54:53;;;;;;;0.25;0.25;;;;;;;;;;5054227;28;20021;-83
2022/09/22 09:57:20;;;;;;;0.90;0.80;;;;;;;;;;5046732;28;20393;-83
2022/09/22 10:02:36;;;;;;;0.20;0.20;;;;;;;;;;5051852;28;20036;-83
2022/09/22 10:05:18;;;;;;;0.47;0.47;;;;;;;;;;5051109;28;20039;-83
2022/09/22 10:07:57;;;;;;;0.15;0.15;;;;;;;;;;5054102;28;20029;-86
2022/09/22 10:10:28;;;;;;;0.25;0.25;;;;;;;;;;5052276;28;20032;-85
2022/09/22 10:13:03;;;;;;;0.40;0.40;;;;;;;;;;5051031;28;20397;-83
2022/09/22 10:15:39;;;;;;;0.30;0.30;;;;;;;;;;5049747;28;20025;-83
2022/09/22 10:18:22;;;;;;;0.40;0.35;;;;;;;;;;5051911;28;20024;-80
2022/09/22 10:21:14;;;;;;;1.23;0.75;;;;;;;;;;5050516;28;20040;-85
2022/09/22 10:23:41;;;;;;;0.10;0.10;;;;;;;;;;5051138;28;20031;-85
2022/09/22 10:26:19;;;;;;;0.60;0.60;;;;;;;;;;5049772;28;20060;-82
2022/09/22 10:29:04;;;;;;;0.30;0.30;;;;;;;;;;5052471;28;20043;-83
2022/09/22 10:31:31;;;;;;;0.22;0.22;;;;;;;;;;5051250;28;20051;-83
2022/09/22 10:33:58;;;;;;;0.28;0.28;;;;;;;;;;5049442;28;20058;-86
2022/09/22 10:36:27;;;;;;;0.20;0.20;;;;;;;;;;5055398;28;20020;-83
2022/09/22 10:38:54;;;;;;;0.30;0.30;;;;;;;;;;5053903;28;20385;-85
2022/09/22 10:41:25;;;;;;;0.20;0.20;;;;;;;;;;5049516;28;20484;-84
2022/09/22 10:44:18;;;;;;;0.30;0.30;;;;;;;;;;5049872;28;20112;-82
2022/09/22 10:46:51;;;;;;;0.30;0.30;;;;;;;;;;5053597;28;20513;-82
2022/09/22 10:49:16;;;;;;;0.28;0.20;;;;;;;;;;5055737;28;20028;-83
2022/09/22 10:51:44;;;;;;;0.47;0.45;;;;;;;;;;5054667;28;20033;-84
2022/09/22 10:54:21;;;;;;;0.32;0.32;;;;;;;;;;5052000;28;20029;-85
2022/09/22 10:56:57;;;;;;;0.25;0.25;;;;;;;;;;5048228;28;20476;-82
2022/09/22 10:59:56;;;;;;;0.90;0.52;;;;;;;;;;5049091;28;20096;-82
2022/09/22 11:02:38;;;;;;;0.38;0.25;;;;;;;;;;5054501;28;20029;-82
2022/09/22 11:05:06;;;;;;;0.17;0.15;;;;;;;;;;5049175;28;20392;-81
2022/09/22 11:14:22;;;;;;;0.25;0.25;;;;;;;;;;5050332;28;20444;-86
2022/09/22 11:17:09;;;;;;;0.10;0.10;;;;;;;;;;5048091;28;20040;-84
2022/09/22 11:20:01;;;;;;;0.20;0.20;;;;;;;;;;5049870;28;20032;-87
2022/09/22 11:22:44;;;;;;;0.25;0.25;;;;;;;;;;5049135;28;20533;-85
2022/09/22 11:25:30;;;;;;;0.20;0.20;;;;;;;;;;5051113;28;20452;-85
2022/09/22 11:28:06;;;;;;;0.57;0.35;;;;;;;;;;5046580;28;20075;-86
2022/09/22 11:30:48;;;;;;;0.17;0.17;;;;;;;;;;5048849;28;20032;-85
2022/09/22 11:33:39;;;;;;;0.22;0.22;;;;;;;;;;5049131;28;20195;-84
2022/09/22 11:36:30;;;;;;;0.10;0.10;;;;;;;;;;5030578;28;20091;-83
2022/09/22 11:39:12;;;;;;;0.22;0.22;;;;;;;;;;5047900;28;20044;-85
2022/09/22 11:42:12;;;;;;;0.22;0.22;;;;;;;;;;5049105;28;20047;-84
2022/09/22 11:44:40;;;;;;;;;;;;;;;;;;5064526;28;20457;-85
2022/09/22 11:47:19;;;;;;;0.00;0.00;;;;;;;;;;5051097;28;19916;-80
2022/09/22 11:50:11;;;;;;;0.20;0.20;;;;;;;;;;5050188;28;20041;-83
2022/09/22 11:53:04;;;;;;;0.88;0.40;;;;;;;;;;5049813;28;20029;-84
2022/09/22 11:55:40;;;;;;;0.10;0.10;;;;;;;;;;5048599;28;20495;-86
2022/09/22 11:58:19;;;;;;;0.20;0.20;;;;;;;;;;5047994;28;20477;-84
2022/09/22 12:00:58;;;;;;;0.30;0.30;;;;;;;;;;5049024;28;20037;-82
2022/09/22 12:03:30;;;;;;;0.35;0.30;;;;;;;;;;5047419;28;20133;-84
2022/09/22 12:06:04;;;;;;;0.65;0.52;;;;;;;;;;5046986;28;20397;-84
2022/09/22 12:08:46;;;;;;;0.60;0.52;;;;;;;;;;5065230;28;20504;-83
2022/09/22 12:11:16;;;;;;;0.98;0.65;;;;;;;;;;5047165;28;20036;-86
2022/09/22 12:13:44;;;;;;;;;;;;;;;;;;5049679;28;20029;-84
2022/09/22 12:16:24;;;;;;;0.45;0.30;;;;;;;;;;5048370;28;19916;-85
2022/09/22 12:18:52;;;;;;;0.20;0.20;;;;;;;;;;5050308;28;20381;-83
2022/09/22 12:21:36;;;;;;;0.20;0.20;;;;;;;;;;5045913;28;20094;-85
2022/09/22 12:24:06;;;;;;;0.10;0.10;;;;;;;;;;5048696;28;20036;-86
2022/09/22 12:26:32;;;;;;;;;;;;;;;;;;5053043;28;20028;-84
2022/09/22 12:29:00;;;;;;;0.50;0.50;;;;;;;;;;5054700;28;20391;-89
2022/09/22 12:31:35;;;;;;;0.35;0.35;;;;;;;;;;5053401;28;20496;-85
2022/09/22 12:34:02;;;;;;;0.43;0.22;;;;;;;;;;5052591;28;20117;-88
2022/09/22 12:36:35;;;;;;;0.70;0.55;;;;;;;;;;5051740;28;20064;-85
2022/09/22 12:39:17;;;;;;;0.10;0.10;;;;;;;;;;5049917;28;20362;-87
2022/09/22 12:41:58;;;;;;;0.32;0.32;;;;;;;;;;5050812;28;20079;-86
2022/09/22 12:44:28;;;;;;;0.60;0.60;;;;;;;;;;5052406;28;20029;-86
2022/09/22 12:47:03;;;;;;;0.90;0.55;;;;;;;;;;5055637;28;20029;-87
2022/09/22 12:49:29;;;;;;;1.05;0.82;;;;;;;;;;5055477;28;20024;-89
2022/09/22 12:51:55;;;;;;;0.30;0.30;;;;;;;;;;5057590;28;20043;-89
2022/09/22 12:54:20;;;;;;;0.43;0.40;;;;;;;;;;5052403;28;20021;-89
2022/09/22 12:57:19;;;;;;;0.77;0.55;;;;;;;;;;5053840;28;20078;-88
2022/09/22 12:59:53;;;;;;;0.73;0.43;;;;;;;;;;5053297;28;20029;-87
2022/09/22 13:02:28;;;;;;;0.30;0.30;;;;;;;;;;5054355;28;20450;-90
2022/09/22 13:04:53;;;;;;;1.10;0.40;;;;;;;;;;5056263;28;20037;-90
2022/09/22 13:07:43;;;;;;;0.30;0.30;;;;;;;;;;5053874;28;20162;-88
2022/09/22 13:10:24;;;;;;;0.20;0.20;;;;;;;;;;5051051;28;20057;-88
2022/09/22 13:13:01;;;;;;;0.20;0.20;;;;;;;;;;5053150;28;20116;-88
2022/09/22 13:15:50;;;;;;;0.70;0.38;;;;;;;;;;5058446;28;20040;-89
2022/09/22 13:18:36;;;;;;;0.30;0.30;;;;;;;;;;5056445;28;20021;-88
2022/09/22 13:21:13;;;;;;;0.30;0.30;;;;;;;;;;5057772;28;20025;-88
2022/09/22 13:23:51;;;;;;;0.20;0.20;;;;;;;;;;5051816;28;20089;-90
2022/09/22 13:26:36;;;;;;;0.73;0.73;;;;;;;;;;5051202;28;20033;-90
2022/09/22 13:29:04;;;;;;;0.55;0.32;;;;;;;;;;5053132;28;20158;-90
2022/09/22 13:31:41;;;;;;;0.32;0.32;;;;;;;;;;5054241;28;20473;-88
2022/09/22 13:34:16;;;;;;;1.17;0.43;;;;;;;;;;5055223;28;20469;-86
2022/09/22 13:36:43;;;;;;;0.77;0.70;;;;;;;;;;5049707;28;20025;-88
2022/09/22 13:39:14;;;;;;;0.20;0.20;;;;;;;;;;5052990;28;20362;-89
2022/09/22 13:41:45;;;;;;;0.38;0.38;;;;;;;;;;5051108;28;20028;-88
2022/09/22 13:44:12;;;;;;;0.63;0.43;;;;;;;;;;5065114;28;20145;-85
2022/09/22 13:46:44;;;;;;;1.08;0.63;;;;;;;;;;5054021;28;20116;-87
2022/09/22 13:49:41;;;;;;;0.85;0.60;;;;;;;;;;5069735;28;20025;-87
2022/09/22 13:52:12;;;;;;;0.28;0.28;;;;;;;;;;5054922;28;20024;-88
2022/09/22 13:54:39;;;;;;;0.88;0.50;;;;;;;;;;5050050;28;20534;-86
2022/09/22 13:57:15;;;;;;;0.40;0.40;;;;;;;;;;5052126;28;20474;-89
2022/09/22 13:59:41;;;;;;;0.55;0.52;;;;;;;;;;5055739;28;20479;-91
2022/09/22 14:02:12;;;;;;;0.65;0.50;;;;;;;;;;5052448;28;20032;-88
2022/09/22 14:04:47;;;;;;;0.50;0.50;;;;;;;;;;5052217;28;20056;-89
2022/09/22 14:07:13;;;;;;;0.43;0.40;;;;;;;;;;5053791;28;20108;-87
2022/09/22 14:09:39;;;;;;;0.82;0.60;;;;;;;;;;5056675;28;20480;-89
2022/09/22 14:12:07;;;;;;;0.45;0.35;;;;;;;;;;5055532;28;20037;-88
2022/09/22 14:14:35;;;;;;;1.23;0.35;;;;;;;;;;5052172;28;20055;-88
2022/09/22 14:17:20;;;;;;;0.85;0.40;;;;;;;;;;5056755;28;20068;-89
2022/09/22 14:20:04;;;;;;;0.25;0.25;;;;;;;;;;5058604;28;20036;-90
2022/09/22 14:22:33;;;;;;;0.88;0.70;;;;;;;;;;5052033;28;20389;-89
2022/09/22 14:25:00;;;;;;;0.15;0.15;;;;;;;;;;5055089;28;20365;-83
2022/09/22 14:27:38;;;;;;;0.32;0.30;;;;;;;;;;5052766;28;20040;-84
2022/09/22 14:30:04;;;;;;;0.32;0.22;;;;;;;;;;5056603;28;20038;-85
2022/09/22 14:32:57;;;;;;;0.30;0.30;;;;;;;;;;5055358;28;20388;-84
2022/09/22 14:35:34;;;;;;;0.10;0.10;;;;;;;;;;5070751;28;20025;-86
2022/09/22 14:38:04;;;;;;;0.10;0.10;;;;;;;;;;5051228;28;20021;-82
2022/09/22 14:40:30;;;;;;;0.32;0.25;;;;;;;;;;5049410;28;20087;-85
2022/09/22 14:43:03;;;;;;;0.22;0.20;;;;;;;;;;5053888;28;20079;-85
2022/09/22 14:45:31;;;;;;;1.40;1.13;;;;;;;;;;5050695;28;20020;-84
2022/09/22 14:48:12;;;;;;;0.70;0.28;;;;;;;;;;5049743;28;20029;-84
2022/09/22 14:50:47;;;;;;;0.22;0.22;;;;;;;;;;5051454;28;20535;-85
2022/09/22 14:53:21;;;;;;;0.30;0.30;;;;;;;;;;5052465;28;20044;-85
2022/09/22 14:55:53;;;;;;;0.25;0.25;;;;;;;;;;5050747;28;20028;-85
2022/09/22 14:58:32;;;;;;;0.30;0.30;;;;;;;;;;5047944;28;20469;-83
2022/09/22 15:04:00;;;;;;;1.08;0.68;;;;;;;;;;5050364;28;20440;-83
2022/09/22 15:06:32;;;;;;;0.73;0.32;;;;;;;;;;5053441;28;20048;-85
2022/09/22 15:09:03;;;;;;;0.32;0.32;;;;;;;;;;5051714;28;20036;-84
2022/09/22 15:11:48;;;;;;;0.43;0.35;;;;;;;;;;5052142;28;20028;-84
2022/09/22 15:14:42;;;;;;;0.35;0.35;;;;;;;;;;5051230;28;20039;-86
2022/09/22 15:20:24;;;;;;;0.20;0.20;;;;;;;;;;5052812;28;20052;-84
2022/09/22 15:22:52;;;;;;;2.08;0.90;;;;;;;;;;5048181;28;20480;-84
2022/09/22 15:25:18;;;;;;;0.65;0.40;;;;;;;;;;5050430;28;20016;-82
2022/09/22 15:27:44;;;;;;;0.93;0.80;;;;;;;;;;5051423;28;20108;-84
2022/09/22 15:30:15;;;;;;;0.75;0.75;;;;;;;;;;5050047;28;20033;-83